sensor_id;sensor_type;location;lat;lon;timestamp;temperature;humidity
8676;DHT22;4375;52.486;13.424;2023-03-23T00:01:05;12.40;99.90
8676;DHT22;4375;52.486;13.424;2023-03-23T00:03:31;12.40;99.90
8676;DHT22;4375;52.486;13.424;2023-03-23T00:05:58;12.40;99.90
8676;DHT22;4375;52.486;13.424;2023-03-23T00:08:30;12.40;99.90
8676;DHT22;4375;52.486;13.424;2023-03-23T00:10:56;12.30;99.90
8676;DHT22;4375;52.486;13.424;2023-03-23T00:13:26;12.30;99.90
8676;DHT22;4375;52.486;13.424;2023-03-23T00:15:52;12.30;99.90
8676;DHT22;4375;52.486;13.424;2023-03-23T00:18:21;12.30;99.90
8676;DHT22;4375;52.486;13.424;2023-03-23T00:20:51;12.30;99.90
8676;DHT22;4375;52.486;13.424;2023-03-23T00:23:19;12.20;99.90
8676;DHT22;4375;52.486;13.424;2023-03-23T00:25:49;12.20;99.90
8676;DHT22;4375;52.486;13.424;2023-03-23T00:28:16;12.10;99.90
8676;DHT22;4375;52.486;13.424;2023-03-23T00:30:42;12.10;99.90
8676;DHT22;4375;52.486;13.424;2023-03-23T00:33:10;12.10;99.90
8676;DHT22;4375;52.486;13.424;2023-03-23T00:35:39;12.10;99.90
8676;DHT22;4375;52.486;13.424;2023-03-23T00:38:05;12.00;99.90
8676;DHT22;4375;52.486;13.424;2023-03-23T00:40:31;12.00;99.90
8676;DHT22;4375;52.486;13.424;2023-03-23T00:43:01;12.00;99.90
8676;DHT22;4375;52.486;13.424;2023-03-23T00:45:29;12.00;99.90
8676;DHT22;4375;52.486;13.424;2023-03-23T00:47:54;12.00;99.90
8676;DHT22;4375;52.486;13.424;2023-03-23T00:50:22;12.00;99.90
8676;DHT22;4375;52.486;13.424;2023-03-23T00:52:47;11.90;99.90
8676;DHT22;4375;52.486;13.424;2023-03-23T00:55:14;11.90;99.90
8676;DHT22;4375;52.486;13.424;2023-03-23T00:57:40;11.90;99.90
8676;DHT22;4375;52.486;13.424;2023-03-23T01:00:06;11.90;99.90
8676;DHT22;4375;52.486;13.424;2023-03-23T01:02:36;11.90;99.90
8676;DHT22;4375;52.486;13.424;2023-03-23T01:05:02;11.90;99.90
8676;DHT22;4375;52.486;13.424;2023-03-23T01:07:28;11.90;99.90
8676;DHT22;4375;52.486;13.424;2023-03-23T01:09:56;11.90;99.90
8676;DHT22;4375;52.486;13.424;2023-03-23T01:12:23;11.90;99.90
8676;DHT22;4375;52.486;13.424;2023-03-23T01:14:50;11.90;99.90
8676;DHT22;4375;52.486;13.424;2023-03-23T01:17:16;11.90;99.90
8676;DHT22;4375;52.486;13.424;2023-03-23T01:19:42;11.80;99.90
8676;DHT22;4375;52.486;13.424;2023-03-23T01:22:07;11.90;99.90
8676;DHT22;4375;52.486;13.424;2023-03-23T01:24:33;11.90;99.90
8676;DHT22;4375;52.486;13.424;2023-03-23T01:26:59;11.80;99.90
8676;DHT22;4375;52.486;13.424;2023-03-23T01:29:34;11.80;99.90
8676;DHT22;4375;52.486;13.424;2023-03-23T01:32:00;11.80;99.90
8676;DHT22;4375;52.486;13.424;2023-03-23T01:34:26;11.80;99.90
8676;DHT22;4375;52.486;13.424;2023-03-23T01:36:51;11.80;99.90
8676;DHT22;4375;52.486;13.424;2023-03-23T01:39:18;11.70;99.90
8676;DHT22;4375;52.486;13.424;2023-03-23T01:41:44;11.70;99.90
8676;DHT22;4375;52.486;13.424;2023-03-23T01:46:42;11.70;99.90
8676;DHT22;4375;52.486;13.424;2023-03-23T01:49:11;11.60;99.90
8676;DHT22;4375;52.486;13.424;2023-03-23T01:51:45;11.60;99.90
8676;DHT22;4375;52.486;13.424;2023-03-23T01:54:14;11.60;99.90
8676;DHT22;4375;52.486;13.424;2023-03-23T01:57:10;11.50;99.90
8676;DHT22;4375;52.486;13.424;2023-03-23T01:59:35;11.50;99.90
8676;DHT22;4375;52.486;13.424;2023-03-23T02:02:01;11.50;99.90
8676;DHT22;4375;52.486;13.424;2023-03-23T02:04:28;11.50;99.90
8676;DHT22;4375;52.486;13.424;2023-03-23T02:06:56;11.60;99.90
8676;DHT22;4375;52.486;13.424;2023-03-23T02:09:25;11.70;99.90
8676;DHT22;4375;52.486;13.424;2023-03-23T02:11:51;11.70;99.90
8676;DHT22;4375;52.486;13.424;2023-03-23T02:14:18;11.70;99.90
8676;DHT22;4375;52.486;13.424;2023-03-23T02:24:57;11.50;99.90
8676;DHT22;4375;52.486;13.424;2023-03-23T02:33:58;11.60;99.90
8676;DHT22;4375;52.486;13.424;2023-03-23T02:36:22;11.60;99.90
8676;DHT22;4375;52.486;13.424;2023-03-23T02:42:04;11.70;99.90
8676;DHT22;4375;52.486;13.424;2023-03-23T02:44:29;11.80;99.90
8676;DHT22;4375;52.486;13.424;2023-03-23T02:46:57;11.80;99.90
8676;DHT22;4375;52.486;13.424;2023-03-23T02:49:25;11.90;99.90
8676;DHT22;4375;52.486;13.424;2023-03-23T02:51:53;11.90;99.90
8676;DHT22;4375;52.486;13.424;2023-03-23T02:54:20;11.90;99.90
8676;DHT22;4375;52.486;13.424;2023-03-23T02:56:48;12.00;99.90
8676;DHT22;4375;52.486;13.424;2023-03-23T02:59:16;11.90;99.90
8676;DHT22;4375;52.486;13.424;2023-03-23T03:04:11;11.90;99.90
8676;DHT22;4375;52.486;13.424;2023-03-23T03:07:02;11.80;99.90
8676;DHT22;4375;52.486;13.424;2023-03-23T03:12:32;11.90;99.90
8676;DHT22;4375;52.486;13.424;2023-03-23T03:15:11;11.90;99.90
8676;DHT22;4375;52.486;13.424;2023-03-23T03:17:43;11.90;99.90
8676;DHT22;4375;52.486;13.424;2023-03-23T03:20:12;11.90;99.90
8676;DHT22;4375;52.486;13.424;2023-03-23T03:22:41;12.00;99.90
8676;DHT22;4375;52.486;13.424;2023-03-23T03:25:12;11.90;99.90
8676;DHT22;4375;52.486;13.424;2023-03-23T03:27:39;11.90;99.90
8676;DHT22;4375;52.486;13.424;2023-03-23T03:30:09;12.00;99.90
8676;DHT22;4375;52.486;13.424;2023-03-23T03:32:46;12.10;99.90
8676;DHT22;4375;52.486;13.424;2023-03-23T03:35:14;12.10;99.90
8676;DHT22;4375;52.486;13.424;2023-03-23T03:37:41;12.00;99.90
8676;DHT22;4375;52.486;13.424;2023-03-23T03:40:15;12.00;99.90
8676;DHT22;4375;52.486;13.424;2023-03-23T03:42:42;12.10;99.90
8676;DHT22;4375;52.486;13.424;2023-03-23T03:45:10;12.10;99.90
8676;DHT22;4375;52.486;13.424;2023-03-23T03:47:37;12.10;99.90
8676;DHT22;4375;52.486;13.424;2023-03-23T03:50:03;12.10;99.90
8676;DHT22;4375;52.486;13.424;2023-03-23T03:52:29;12.10;99.90
8676;DHT22;4375;52.486;13.424;2023-03-23T03:54:55;12.10;99.90
8676;DHT22;4375;52.486;13.424;2023-03-23T03:57:21;12.10;99.90
8676;DHT22;4375;52.486;13.424;2023-03-23T03:59:47;12.10;99.90
8676;DHT22;4375;52.486;13.424;2023-03-23T04:02:13;12.00;99.90
8676;DHT22;4375;52.486;13.424;2023-03-23T04:04:42;12.00;99.90
8676;DHT22;4375;52.486;13.424;2023-03-23T04:07:08;12.00;99.90
8676;DHT22;4375;52.486;13.424;2023-03-23T04:09:36;12.00;99.90
8676;DHT22;4375;52.486;13.424;2023-03-23T04:12:02;12.00;99.90
8676;DHT22;4375;52.486;13.424;2023-03-23T04:14:28;12.00;99.90
8676;DHT22;4375;52.486;13.424;2023-03-23T04:16:53;12.00;99.90
8676;DHT22;4375;52.486;13.424;2023-03-23T04:19:22;12.00;99.90
8676;DHT22;4375;52.486;13.424;2023-03-23T04:21:48;12.00;99.90
8676;DHT22;4375;52.486;13.424;2023-03-23T04:24:15;12.00;99.90
8676;DHT22;4375;52.486;13.424;2023-03-23T04:26:41;11.90;99.90
8676;DHT22;4375;52.486;13.424;2023-03-23T04:29:08;11.90;99.90
8676;DHT22;4375;52.486;13.424;2023-03-23T04:31:34;11.80;99.90
8676;DHT22;4375;52.486;13.424;2023-03-23T04:34:00;11.80;99.90
8676;DHT22;4375;52.486;13.424;2023-03-23T04:36:27;11.80;99.90
8676;DHT22;4375;52.486;13.424;2023-03-23T04:38:54;11.90;99.90
8676;DHT22;4375;52.486;13.424;2023-03-23T04:41:22;11.90;99.90
8676;DHT22;4375;52.486;13.424;2023-03-23T04:43:48;11.90;99.90
8676;DHT22;4375;52.486;13.424;2023-03-23T04:46:18;11.90;99.90
8676;DHT22;4375;52.486;13.424;2023-03-23T04:48:45;11.90;99.90
8676;DHT22;4375;52.486;13.424;2023-03-23T04:51:11;11.90;99.90
8676;DHT22;4375;52.486;13.424;2023-03-23T04:53:40;11.90;99.90
8676;DHT22;4375;52.486;13.424;2023-03-23T04:56:06;11.90;99.90
8676;DHT22;4375;52.486;13.424;2023-03-23T04:58:32;11.80;99.90
8676;DHT22;4375;52.486;13.424;2023-03-23T05:01:00;11.80;99.90
8676;DHT22;4375;52.486;13.424;2023-03-23T05:03:26;11.80;99.90
8676;DHT22;4375;52.486;13.424;2023-03-23T05:05:53;11.80;99.90
8676;DHT22;4375;52.486;13.424;2023-03-23T05:08:23;11.80;99.90
8676;DHT22;4375;52.486;13.424;2023-03-23T05:10:55;11.80;99.90
8676;DHT22;4375;52.486;13.424;2023-03-23T05:13:21;11.80;99.90
8676;DHT22;4375;52.486;13.424;2023-03-23T05:15:47;11.80;99.90
8676;DHT22;4375;52.486;13.424;2023-03-23T05:18:13;11.80;99.90
8676;DHT22;4375;52.486;13.424;2023-03-23T05:20:40;11.80;99.90
8676;DHT22;4375;52.486;13.424;2023-03-23T05:23:07;11.70;99.90
8676;DHT22;4375;52.486;13.424;2023-03-23T05:25:32;11.80;99.90
8676;DHT22;4375;52.486;13.424;2023-03-23T05:28:02;11.70;99.90
8676;DHT22;4375;52.486;13.424;2023-03-23T05:30:28;11.70;99.90
8676;DHT22;4375;52.486;13.424;2023-03-23T05:32:55;11.60;99.90
8676;DHT22;4375;52.486;13.424;2023-03-23T05:35:21;11.60;99.90
8676;DHT22;4375;52.486;13.424;2023-03-23T05:37:46;11.60;99.90
8676;DHT22;4375;52.486;13.424;2023-03-23T05:40:13;11.60;99.90
8676;DHT22;4375;52.486;13.424;2023-03-23T05:42:40;11.60;99.90
8676;DHT22;4375;52.486;13.424;2023-03-23T05:45:11;11.60;99.90
8676;DHT22;4375;52.486;13.424;2023-03-23T05:47:38;11.60;99.90
8676;DHT22;4375;52.486;13.424;2023-03-23T05:50:06;11.60;99.90
8676;DHT22;4375;52.486;13.424;2023-03-23T05:52:33;11.50;99.90
8676;DHT22;4375;52.486;13.424;2023-03-23T05:55:01;11.50;99.90
8676;DHT22;4375;52.486;13.424;2023-03-23T05:57:26;11.50;99.90
8676;DHT22;4375;52.486;13.424;2023-03-23T05:59:52;11.50;99.90
8676;DHT22;4375;52.486;13.424;2023-03-23T06:02:18;11.50;99.90
8676;DHT22;4375;52.486;13.424;2023-03-23T06:04:44;11.40;99.90
8676;DHT22;4375;52.486;13.424;2023-03-23T06:07:10;11.40;99.90
8676;DHT22;4375;52.486;13.424;2023-03-23T06:09:39;11.40;99.90
8676;DHT22;4375;52.486;13.424;2023-03-23T06:12:05;11.30;99.90
8676;DHT22;4375;52.486;13.424;2023-03-23T06:14:31;11.30;99.90
8676;DHT22;4375;52.486;13.424;2023-03-23T06:16:57;11.30;99.90
8676;DHT22;4375;52.486;13.424;2023-03-23T06:19:23;11.30;99.90
8676;DHT22;4375;52.486;13.424;2023-03-23T06:21:49;11.30;99.90
8676;DHT22;4375;52.486;13.424;2023-03-23T06:24:15;11.20;99.90
8676;DHT22;4375;52.486;13.424;2023-03-23T06:26:40;11.30;99.90
8676;DHT22;4375;52.486;13.424;2023-03-23T06:29:07;11.20;99.90
8676;DHT22;4375;52.486;13.424;2023-03-23T06:31:42;11.20;99.90
8676;DHT22;4375;52.486;13.424;2023-03-23T06:34:08;11.20;99.90
8676;DHT22;4375;52.486;13.424;2023-03-23T06:36:35;11.30;99.90
8676;DHT22;4375;52.486;13.424;2023-03-23T06:39:01;11.20;99.90
8676;DHT22;4375;52.486;13.424;2023-03-23T06:41:32;11.30;99.90
8676;DHT22;4375;52.486;13.424;2023-03-23T06:43:59;11.30;99.90
8676;DHT22;4375;52.486;13.424;2023-03-23T06:46:26;11.30;99.90
8676;DHT22;4375;52.486;13.424;2023-03-23T06:48:51;11.20;99.90
8676;DHT22;4375;52.486;13.424;2023-03-23T06:51:18;11.20;99.90
8676;DHT22;4375;52.486;13.424;2023-03-23T06:53:44;11.30;99.90
8676;DHT22;4375;52.486;13.424;2023-03-23T06:56:10;11.40;99.90
8676;DHT22;4375;52.486;13.424;2023-03-23T06:58:37;11.30;99.90
8676;DHT22;4375;52.486;13.424;2023-03-23T07:01:03;11.40;99.90
8676;DHT22;4375;52.486;13.424;2023-03-23T07:03:29;11.50;99.90
8676;DHT22;4375;52.486;13.424;2023-03-23T07:05:57;11.60;99.90
8676;DHT22;4375;52.486;13.424;2023-03-23T07:08:23;11.70;99.90
8676;DHT22;4375;52.486;13.424;2023-03-23T07:10:53;11.60;99.90
8676;DHT22;4375;52.486;13.424;2023-03-23T07:13:20;11.60;99.90
8676;DHT22;4375;52.486;13.424;2023-03-23T07:15:46;11.60;99.90
8676;DHT22;4375;52.486;13.424;2023-03-23T07:18:11;11.60;99.90
8676;DHT22;4375;52.486;13.424;2023-03-23T07:20:37;11.60;99.90
8676;DHT22;4375;52.486;13.424;2023-03-23T07:23:03;11.60;99.90
8676;DHT22;4375;52.486;13.424;2023-03-23T07:25:31;11.60;99.90
8676;DHT22;4375;52.486;13.424;2023-03-23T07:27:59;11.60;99.90
8676;DHT22;4375;52.486;13.424;2023-03-23T07:30:25;11.70;99.90
8676;DHT22;4375;52.486;13.424;2023-03-23T07:32:51;11.50;99.90
8676;DHT22;4375;52.486;13.424;2023-03-23T07:35:17;11.60;99.90
8676;DHT22;4375;52.486;13.424;2023-03-23T07:37:43;11.70;99.90
8676;DHT22;4375;52.486;13.424;2023-03-23T07:40:09;11.70;99.90
8676;DHT22;4375;52.486;13.424;2023-03-23T07:42:42;11.60;99.90
8676;DHT22;4375;52.486;13.424;2023-03-23T07:45:12;11.70;99.90
8676;DHT22;4375;52.486;13.424;2023-03-23T07:47:39;11.70;99.90
8676;DHT22;4375;52.486;13.424;2023-03-23T07:50:06;11.70;99.90
8676;DHT22;4375;52.486;13.424;2023-03-23T07:52:34;11.70;99.90
8676;DHT22;4375;52.486;13.424;2023-03-23T07:55:00;11.70;99.90
8676;DHT22;4375;52.486;13.424;2023-03-23T07:57:27;11.80;99.90
8676;DHT22;4375;52.486;13.424;2023-03-23T07:59:53;11.90;99.90
8676;DHT22;4375;52.486;13.424;2023-03-23T08:02:19;11.90;99.90
8676;DHT22;4375;52.486;13.424;2023-03-23T08:04:45;11.80;99.90
8676;DHT22;4375;52.486;13.424;2023-03-23T08:07:13;11.90;99.90
8676;DHT22;4375;52.486;13.424;2023-03-23T08:09:39;11.90;99.90
8676;DHT22;4375;52.486;13.424;2023-03-23T08:12:05;12.00;99.90
8676;DHT22;4375;52.486;13.424;2023-03-23T08:14:30;12.10;99.90
8676;DHT22;4375;52.486;13.424;2023-03-23T08:16:56;12.10;99.90
8676;DHT22;4375;52.486;13.424;2023-03-23T08:19:22;12.10;99.90
8676;DHT22;4375;52.486;13.424;2023-03-23T08:21:48;12.20;99.90
8676;DHT22;4375;52.486;13.424;2023-03-23T08:24:14;12.10;99.90
8676;DHT22;4375;52.486;13.424;2023-03-23T08:26:40;12.10;99.90
8676;DHT22;4375;52.486;13.424;2023-03-23T08:29:07;12.20;99.90
8676;DHT22;4375;52.486;13.424;2023-03-23T08:31:34;12.10;99.90
8676;DHT22;4375;52.486;13.424;2023-03-23T08:34:03;12.20;99.90
8676;DHT22;4375;52.486;13.424;2023-03-23T08:36:34;12.10;99.90
8676;DHT22;4375;52.486;13.424;2023-03-23T08:38:59;12.10;99.90
8676;DHT22;4375;52.486;13.424;2023-03-23T08:41:25;12.20;99.90
8676;DHT22;4375;52.486;13.424;2023-03-23T08:43:51;12.10;99.90
8676;DHT22;4375;52.486;13.424;2023-03-23T08:46:18;12.10;99.90
8676;DHT22;4375;52.486;13.424;2023-03-23T08:48:45;12.10;99.90
8676;DHT22;4375;52.486;13.424;2023-03-23T08:51:11;12.20;99.90
8676;DHT22;4375;52.486;13.424;2023-03-23T08:53:37;12.20;99.90
8676;DHT22;4375;52.486;13.424;2023-03-23T08:56:08;12.30;99.90
8676;DHT22;4375;52.486;13.424;2023-03-23T08:58:35;12.40;99.90
8676;DHT22;4375;52.486;13.424;2023-03-23T09:01:01;12.50;99.90
8676;DHT22;4375;52.486;13.424;2023-03-23T09:03:27;12.60;99.90
8676;DHT22;4375;52.486;13.424;2023-03-23T09:05:57;12.70;99.90
8676;DHT22;4375;52.486;13.424;2023-03-23T09:08:23;12.80;99.90
8676;DHT22;4375;52.486;13.424;2023-03-23T09:10:48;12.90;99.90
8676;DHT22;4375;52.486;13.424;2023-03-23T09:13:15;13.20;99.90
8676;DHT22;4375;52.486;13.424;2023-03-23T09:15:41;13.30;99.90
8676;DHT22;4375;52.486;13.424;2023-03-23T09:18:06;13.20;99.90
8676;DHT22;4375;52.486;13.424;2023-03-23T09:20:32;13.30;99.90
8676;DHT22;4375;52.486;13.424;2023-03-23T09:22:58;13.30;99.90
8676;DHT22;4375;52.486;13.424;2023-03-23T09:25:26;13.30;99.90
8676;DHT22;4375;52.486;13.424;2023-03-23T09:27:55;13.20;99.90
8676;DHT22;4375;52.486;13.424;2023-03-23T09:30:27;13.20;99.90
8676;DHT22;4375;52.486;13.424;2023-03-23T09:32:54;13.20;99.90
8676;DHT22;4375;52.486;13.424;2023-03-23T09:35:20;13.20;99.90
8676;DHT22;4375;52.486;13.424;2023-03-23T09:37:51;13.30;99.90
8676;DHT22;4375;52.486;13.424;2023-03-23T09:49:12;13.90;99.90
8676;DHT22;4375;52.486;13.424;2023-03-23T09:51:41;14.00;99.90
8676;DHT22;4375;52.486;13.424;2023-03-23T09:54:13;13.90;99.90
8676;DHT22;4375;52.486;13.424;2023-03-23T09:56:39;14.00;99.90
8676;DHT22;4375;52.486;13.424;2023-03-23T09:59:20;14.00;99.90
8676;DHT22;4375;52.486;13.424;2023-03-23T10:01:50;14.30;99.90
8676;DHT22;4375;52.486;13.424;2023-03-23T10:07:12;14.50;99.90
8676;DHT22;4375;52.486;13.424;2023-03-23T10:09:40;14.60;99.90
8676;DHT22;4375;52.486;13.424;2023-03-23T10:17:42;14.30;99.90
8676;DHT22;4375;52.486;13.424;2023-03-23T10:25:22;14.30;99.90
8676;DHT22;4375;52.486;13.424;2023-03-23T10:28:12;14.20;99.90
8676;DHT22;4375;52.486;13.424;2023-03-23T10:30:56;14.40;99.90
8676;DHT22;4375;52.486;13.424;2023-03-23T10:33:34;14.60;99.90
8676;DHT22;4375;52.486;13.424;2023-03-23T10:41:34;14.80;99.90
8676;DHT22;4375;52.486;13.424;2023-03-23T10:44:00;15.00;99.90
8676;DHT22;4375;52.486;13.424;2023-03-23T10:49:19;15.20;99.90
8676;DHT22;4375;52.486;13.424;2023-03-23T10:52:33;15.20;99.90
8676;DHT22;4375;52.486;13.424;2023-03-23T10:54:48;15.10;99.90
8676;DHT22;4375;52.486;13.424;2023-03-23T10:57:23;15.00;99.90
8676;DHT22;4375;52.486;13.424;2023-03-23T10:59:50;15.00;99.90
8676;DHT22;4375;52.486;13.424;2023-03-23T11:02:20;14.80;99.90
8676;DHT22;4375;52.486;13.424;2023-03-23T11:04:59;14.80;99.90
8676;DHT22;4375;52.486;13.424;2023-03-23T11:07:31;14.70;99.90
8676;DHT22;4375;52.486;13.424;2023-03-23T11:10:20;14.80;99.90
8676;DHT22;4375;52.486;13.424;2023-03-23T11:12:46;14.70;99.90
8676;DHT22;4375;52.486;13.424;2023-03-23T11:15:29;14.80;99.90
8676;DHT22;4375;52.486;13.424;2023-03-23T11:18:00;14.80;99.90
8676;DHT22;4375;52.486;13.424;2023-03-23T11:20:28;14.80;99.90
8676;DHT22;4375;52.486;13.424;2023-03-23T11:22:55;15.00;99.90
8676;DHT22;4375;52.486;13.424;2023-03-23T11:25:21;15.10;99.90
8676;DHT22;4375;52.486;13.424;2023-03-23T11:27:48;15.20;99.90
8676;DHT22;4375;52.486;13.424;2023-03-23T11:30:24;15.40;99.90
8676;DHT22;4375;52.486;13.424;2023-03-23T11:32:51;15.30;99.90
8676;DHT22;4375;52.486;13.424;2023-03-23T11:35:22;15.20;99.90
8676;DHT22;4375;52.486;13.424;2023-03-23T11:37:56;15.10;99.90
8676;DHT22;4375;52.486;13.424;2023-03-23T11:40:29;15.10;99.90
8676;DHT22;4375;52.486;13.424;2023-03-23T11:43:09;15.20;99.90
8676;DHT22;4375;52.486;13.424;2023-03-23T11:45:38;15.40;99.90
8676;DHT22;4375;52.486;13.424;2023-03-23T11:48:13;15.40;99.90
8676;DHT22;4375;52.486;13.424;2023-03-23T11:58:16;15.60;99.90
8676;DHT22;4375;52.486;13.424;2023-03-23T12:00:55;15.60;99.90
8676;DHT22;4375;52.486;13.424;2023-03-23T12:03:22;15.80;99.90
8676;DHT22;4375;52.486;13.424;2023-03-23T12:08:25;15.70;99.90
8676;DHT22;4375;52.486;13.424;2023-03-23T12:35:34;15.80;99.90
8676;DHT22;4375;52.486;13.424;2023-03-23T12:43:59;16.00;99.90
8676;DHT22;4375;52.486;13.424;2023-03-23T12:46:32;16.00;99.90
8676;DHT22;4375;52.486;13.424;2023-03-23T12:49:26;15.80;99.90
8676;DHT22;4375;52.486;13.424;2023-03-23T12:52:09;15.90;99.90
8676;DHT22;4375;52.486;13.424;2023-03-23T12:54:55;15.90;99.90
8676;DHT22;4375;52.486;13.424;2023-03-23T12:57:48;15.90;99.90
8676;DHT22;4375;52.486;13.424;2023-03-23T13:00:53;16.00;99.90
8676;DHT22;4375;52.486;13.424;2023-03-23T13:03:39;16.10;99.90
8676;DHT22;4375;52.486;13.424;2023-03-23T13:08:46;16.20;99.90
8676;DHT22;4375;52.486;13.424;2023-03-23T13:11:37;16.20;99.90
8676;DHT22;4375;52.486;13.424;2023-03-23T13:22:16;16.50;99.90
8676;DHT22;4375;52.486;13.424;2023-03-23T13:24:51;16.40;99.90
8676;DHT22;4375;52.486;13.424;2023-03-23T13:27:17;16.40;99.90
8676;DHT22;4375;52.486;13.424;2023-03-23T13:29:44;16.30;99.90
8676;DHT22;4375;52.486;13.424;2023-03-23T13:32:15;16.20;99.90
8676;DHT22;4375;52.486;13.424;2023-03-23T13:34:42;16.20;99.90
8676;DHT22;4375;52.486;13.424;2023-03-23T13:42:23;16.10;99.90
8676;DHT22;4375;52.486;13.424;2023-03-23T13:47:25;16.30;99.90
8676;DHT22;4375;52.486;13.424;2023-03-23T13:50:08;16.20;99.90
8676;DHT22;4375;52.486;13.424;2023-03-23T13:52:58;16.20;99.90
8676;DHT22;4375;52.486;13.424;2023-03-23T14:03:53;16.20;99.90
8676;DHT22;4375;52.486;13.424;2023-03-23T14:06:14;16.10;99.90
8676;DHT22;4375;52.486;13.424;2023-03-23T14:08:43;16.10;99.90
8676;DHT22;4375;52.486;13.424;2023-03-23T14:11:27;16.30;99.90
8676;DHT22;4375;52.486;13.424;2023-03-23T14:14:07;16.30;99.90
8676;DHT22;4375;52.486;13.424;2023-03-23T14:19:04;16.50;99.90
8676;DHT22;4375;52.486;13.424;2023-03-23T14:21:41;16.50;99.90
8676;DHT22;4375;52.486;13.424;2023-03-23T14:24:12;16.40;99.90
8676;DHT22;4375;52.486;13.424;2023-03-23T14:26:40;16.30;99.90
8676;DHT22;4375;52.486;13.424;2023-03-23T14:29:11;16.10;99.90
8676;DHT22;4375;52.486;13.424;2023-03-23T14:31:38;16.20;99.90
8676;DHT22;4375;52.486;13.424;2023-03-23T14:34:14;16.10;99.90
8676;DHT22;4375;52.486;13.424;2023-03-23T14:36:41;16.10;99.90
8676;DHT22;4375;52.486;13.424;2023-03-23T14:41:41;15.90;99.90
8676;DHT22;4375;52.486;13.424;2023-03-23T14:44:17;15.90;99.90
8676;DHT22;4375;52.486;13.424;2023-03-23T14:46:44;15.90;99.90
8676;DHT22;4375;52.486;13.424;2023-03-23T14:49:14;15.90;99.90
8676;DHT22;4375;52.486;13.424;2023-03-23T14:51:53;15.80;99.90
8676;DHT22;4375;52.486;13.424;2023-03-23T14:54:29;15.70;99.90
8676;DHT22;4375;52.486;13.424;2023-03-23T14:57:05;15.70;99.90
8676;DHT22;4375;52.486;13.424;2023-03-23T14:59:36;15.60;99.90
8676;DHT22;4375;52.486;13.424;2023-03-23T15:02:01;15.60;99.90
8676;DHT22;4375;52.486;13.424;2023-03-23T15:04:28;15.50;99.90
8676;DHT22;4375;52.486;13.424;2023-03-23T15:07:04;15.40;99.90
8676;DHT22;4375;52.486;13.424;2023-03-23T15:09:31;15.40;99.90
8676;DHT22;4375;52.486;13.424;2023-03-23T15:12:02;15.50;99.90
8676;DHT22;4375;52.486;13.424;2023-03-23T15:14:45;15.50;99.90
8676;DHT22;4375;52.486;13.424;2023-03-23T15:17:20;15.60;99.90
8676;DHT22;4375;52.486;13.424;2023-03-23T15:19:46;15.40;99.90
8676;DHT22;4375;52.486;13.424;2023-03-23T15:22:30;15.40;99.90
8676;DHT22;4375;52.486;13.424;2023-03-23T15:30:32;15.50;99.90
8676;DHT22;4375;52.486;13.424;2023-03-23T15:33:09;15.40;99.90
8676;DHT22;4375;52.486;13.424;2023-03-23T15:35:38;15.40;99.90
8676;DHT22;4375;52.486;13.424;2023-03-23T15:38:21;15.40;99.90
8676;DHT22;4375;52.486;13.424;2023-03-23T15:40:51;15.40;99.90
8676;DHT22;4375;52.486;13.424;2023-03-23T15:43:20;15.30;99.90
8676;DHT22;4375;52.486;13.424;2023-03-23T15:48:52;15.40;99.90
8676;DHT22;4375;52.486;13.424;2023-03-23T15:51:21;15.40;99.90
8676;DHT22;4375;52.486;13.424;2023-03-23T15:53:50;15.30;99.90
8676;DHT22;4375;52.486;13.424;2023-03-23T15:56:16;15.40;99.90
8676;DHT22;4375;52.486;13.424;2023-03-23T15:58:42;15.40;99.90
8676;DHT22;4375;52.486;13.424;2023-03-23T16:01:13;15.30;99.90
8676;DHT22;4375;52.486;13.424;2023-03-23T16:06:08;15.40;99.90
8676;DHT22;4375;52.486;13.424;2023-03-23T16:08:34;15.50;99.90
8676;DHT22;4375;52.486;13.424;2023-03-23T16:11:11;15.50;99.90
8676;DHT22;4375;52.486;13.424;2023-03-23T16:13:38;15.60;99.90
8676;DHT22;4375;52.486;13.424;2023-03-23T16:16:05;15.50;99.90
8676;DHT22;4375;52.486;13.424;2023-03-23T16:18:32;15.50;99.90
8676;DHT22;4375;52.486;13.424;2023-03-23T16:20:58;15.60;99.90
8676;DHT22;4375;52.486;13.424;2023-03-23T16:23:24;15.60;99.90
8676;DHT22;4375;52.486;13.424;2023-03-23T16:25:49;15.60;99.90
8676;DHT22;4375;52.486;13.424;2023-03-23T16:28:15;15.60;99.90
8676;DHT22;4375;52.486;13.424;2023-03-23T16:30:42;15.60;99.90
8676;DHT22;4375;52.486;13.424;2023-03-23T16:33:08;15.60;99.90
8676;DHT22;4375;52.486;13.424;2023-03-23T16:35:35;15.50;99.90
8676;DHT22;4375;52.486;13.424;2023-03-23T16:38:01;15.50;99.90
8676;DHT22;4375;52.486;13.424;2023-03-23T16:40:27;15.50;99.90
8676;DHT22;4375;52.486;13.424;2023-03-23T16:42:53;15.40;99.90
8676;DHT22;4375;52.486;13.424;2023-03-23T16:45:19;15.40;99.90
8676;DHT22;4375;52.486;13.424;2023-03-23T16:47:45;15.30;99.90
8676;DHT22;4375;52.486;13.424;2023-03-23T16:50:14;15.30;99.90
8676;DHT22;4375;52.486;13.424;2023-03-23T16:52:41;15.30;99.90
8676;DHT22;4375;52.486;13.424;2023-03-23T16:55:08;15.30;99.90
8676;DHT22;4375;52.486;13.424;2023-03-23T16:57:34;15.20;99.90
8676;DHT22;4375;52.486;13.424;2023-03-23T17:00:03;15.30;99.90
8676;DHT22;4375;52.486;13.424;2023-03-23T17:02:30;15.20;99.90
8676;DHT22;4375;52.486;13.424;2023-03-23T17:04:56;15.10;99.90
8676;DHT22;4375;52.486;13.424;2023-03-23T17:07:23;15.10;99.90
8676;DHT22;4375;52.486;13.424;2023-03-23T17:09:49;14.90;99.90
8676;DHT22;4375;52.486;13.424;2023-03-23T17:12:14;14.90;99.90
8676;DHT22;4375;52.486;13.424;2023-03-23T17:14:40;14.80;99.90
8676;DHT22;4375;52.486;13.424;2023-03-23T17:17:06;14.70;99.90
8676;DHT22;4375;52.486;13.424;2023-03-23T17:19:32;14.60;99.90
8676;DHT22;4375;52.486;13.424;2023-03-23T17:21:58;14.50;99.90
8676;DHT22;4375;52.486;13.424;2023-03-23T17:24:24;14.40;99.90
8676;DHT22;4375;52.486;13.424;2023-03-23T17:26:49;14.40;99.90
8676;DHT22;4375;52.486;13.424;2023-03-23T17:29:16;14.30;99.90
8676;DHT22;4375;52.486;13.424;2023-03-23T17:31:42;14.20;99.90
8676;DHT22;4375;52.486;13.424;2023-03-23T17:34:08;14.10;99.90
8676;DHT22;4375;52.486;13.424;2023-03-23T17:36:33;14.10;99.90
8676;DHT22;4375;52.486;13.424;2023-03-23T17:38:59;14.10;99.90
8676;DHT22;4375;52.486;13.424;2023-03-23T17:41:25;14.10;99.90
8676;DHT22;4375;52.486;13.424;2023-03-23T17:43:51;14.10;99.90
8676;DHT22;4375;52.486;13.424;2023-03-23T17:46:16;14.10;99.90
8676;DHT22;4375;52.486;13.424;2023-03-23T17:48:42;14.00;99.90
8676;DHT22;4375;52.486;13.424;2023-03-23T17:51:08;13.80;99.90
8676;DHT22;4375;52.486;13.424;2023-03-23T17:53:35;13.80;99.90
8676;DHT22;4375;52.486;13.424;2023-03-23T17:56:02;13.60;99.90
8676;DHT22;4375;52.486;13.424;2023-03-23T17:58:27;13.60;99.90
8676;DHT22;4375;52.486;13.424;2023-03-23T18:00:54;13.40;99.90
8676;DHT22;4375;52.486;13.424;2023-03-23T18:03:20;13.40;99.90
8676;DHT22;4375;52.486;13.424;2023-03-23T18:05:46;13.40;99.90
8676;DHT22;4375;52.486;13.424;2023-03-23T18:08:12;13.30;99.90
8676;DHT22;4375;52.486;13.424;2023-03-23T18:10:39;13.30;99.90
8676;DHT22;4375;52.486;13.424;2023-03-23T18:13:06;13.20;99.90
8676;DHT22;4375;52.486;13.424;2023-03-23T18:15:33;13.20;99.90